Airfield :
LOGIN :

Register | Disclaimer

   EN    FR    IT 

 










Legend :    VFR   Marginal VFR   IFR   Intensive IFR   Very Intensive IFR
Visi :
Ceiling :
>= 8 km
>= 3000ft
5 to 8 km
1000 to 3000 ft
1500m to 5 km
500 to 1000 ft
800 to 1500m
200 to 500 ft
< 800m
< 200 ft
Symbols :   Thunderstorms  Fog  Heavy snow  Heavy precipitations  Wind > 20 kt
SIGMETs :     Misc.  Thunderstorms  Icing  Turbulence  Mountain Waves  Volcanic Ashes






- Airport Elevation : 598 ft
- IATA code : BQH


EGKB - Biggin Hill

CURRENT METAR :
  • 070720Z 35009KT 320V020 9999 BKN020 16/11 Q1027

EXPIRED METARs :
  • 070650Z 34008KT 300V010 9999 BKN025 16/11 Q1027
  • 070620Z 35010KT 9999 BKN019 16/11 Q1027
  • 070550Z 34011KT 9999 BKN019 16/12 Q1026
  • 070520Z 33012KT 9999 BKN020 16/12 Q1026

TAF TAF EGKB
Valid from the 07 at 06:00 until the 07 at 15:00 UTC


070555Z 0706/0715 35010KT 9999 SCT020
PROB30
TEMPO 0706/0709 9000 -RA BKN014



MET'MAP, your aeronautical weather chart ! - Copyright ORBIFLY December 2007 - Disclaimer

ORBIFLY MET'MAP TEAM :

Programming & Development : Alexandra Zaïnal
Original concept : Baudouin d'Aumeries
Technical & hardware support : Manuel Goepfert
Assistance : Marc-Olivier Méhu




SOURCES & CREDITS :

   NOAA